sensor_id;sensor_type;location;lat;lon;timestamp;pressure;altitude;pressure_sealevel;temperature;humidity
42727;BME280;28372;56.832;60.658;2023-07-13T00:02:26;97011.56;;;23.44;48.80
42727;BME280;28372;56.832;60.658;2023-07-13T00:04:54;97012.06;;;23.43;48.92
42727;BME280;28372;56.832;60.658;2023-07-13T00:07:22;97013.66;;;23.50;48.63
42727;BME280;28372;56.832;60.658;2023-07-13T00:09:52;97020.78;;;23.56;48.55
42727;BME280;28372;56.832;60.658;2023-07-13T00:12:28;97021.75;;;23.53;49.74
42727;BME280;28372;56.832;60.658;2023-07-13T00:14:58;97020.44;;;23.34;49.26
42727;BME280;28372;56.832;60.658;2023-07-13T00:17:27;97024.88;;;23.31;49.18
42727;BME280;28372;56.832;60.658;2023-07-13T00:19:56;97030.72;;;23.33;49.08
42727;BME280;28372;56.832;60.658;2023-07-13T00:22:25;97034.59;;;23.41;48.91
42727;BME280;28372;56.832;60.658;2023-07-13T00:24:53;97017.00;;;23.24;48.81
42727;BME280;28372;56.832;60.658;2023-07-13T00:27:24;97033.38;;;23.27;49.45
42727;BME280;28372;56.832;60.658;2023-07-13T00:29:54;97029.84;;;23.27;48.65
42727;BME280;28372;56.832;60.658;2023-07-13T00:32:21;97036.88;;;23.28;48.20
42727;BME280;28372;56.832;60.658;2023-07-13T00:34:49;97035.00;;;23.34;48.23
42727;BME280;28372;56.832;60.658;2023-07-13T00:37:18;97031.66;;;23.30;48.18
42727;BME280;28372;56.832;60.658;2023-07-13T00:39:46;97035.44;;;23.33;47.54
42727;BME280;28372;56.832;60.658;2023-07-13T00:42:14;97037.84;;;23.25;47.40
42727;BME280;28372;56.832;60.658;2023-07-13T00:45:01;97039.72;;;23.64;48.11
42727;BME280;28372;56.832;60.658;2023-07-13T00:47:31;97039.34;;;23.41;47.05
42727;BME280;28372;56.832;60.658;2023-07-13T00:50:00;97039.00;;;23.33;47.69
42727;BME280;28372;56.832;60.658;2023-07-13T00:52:30;97038.88;;;23.42;47.52
42727;BME280;28372;56.832;60.658;2023-07-13T00:54:59;97042.59;;;23.39;47.67
42727;BME280;28372;56.832;60.658;2023-07-13T00:57:29;97050.47;;;23.47;47.50
42727;BME280;28372;56.832;60.658;2023-07-13T00:59:59;97060.47;;;23.59;47.55
42727;BME280;28372;56.832;60.658;2023-07-13T01:02:38;97062.16;;;23.71;47.67
42727;BME280;28372;56.832;60.658;2023-07-13T01:05:11;97059.00;;;23.78;47.24
42727;BME280;28372;56.832;60.658;2023-07-13T01:07:39;97065.59;;;23.66;46.53
42727;BME280;28372;56.832;60.658;2023-07-13T01:10:08;97060.38;;;23.68;46.74
42727;BME280;28372;56.832;60.658;2023-07-13T01:12:36;97055.59;;;23.69;46.52
42727;BME280;28372;56.832;60.658;2023-07-13T01:15:05;97063.50;;;23.76;46.23
42727;BME280;28372;56.832;60.658;2023-07-13T01:17:34;97063.63;;;23.67;46.07
42727;BME280;28372;56.832;60.658;2023-07-13T01:20:02;97053.22;;;23.76;45.47
42727;BME280;28372;56.832;60.658;2023-07-13T01:22:29;97050.72;;;23.78;45.26
42727;BME280;28372;56.832;60.658;2023-07-13T01:25:00;97060.47;;;23.89;44.68
42727;BME280;28372;56.832;60.658;2023-07-13T01:27:29;97061.38;;;23.86;44.80
42727;BME280;28372;56.832;60.658;2023-07-13T01:29:57;97068.75;;;23.89;44.45
42727;BME280;28372;56.832;60.658;2023-07-13T01:32:34;97065.59;;;23.96;44.00
42727;BME280;28372;56.832;60.658;2023-07-13T01:35:04;97062.16;;;23.86;43.86
42727;BME280;28372;56.832;60.658;2023-07-13T01:37:32;97058.47;;;23.89;43.37
42727;BME280;28372;56.832;60.658;2023-07-13T01:40:00;97063.09;;;23.83;44.14
42727;BME280;28372;56.832;60.658;2023-07-13T01:42:31;97067.50;;;23.75;43.77
42727;BME280;28372;56.832;60.658;2023-07-13T01:44:58;97067.59;;;23.81;43.92
42727;BME280;28372;56.832;60.658;2023-07-13T01:47:26;97064.34;;;23.82;43.59
42727;BME280;28372;56.832;60.658;2023-07-13T01:49:55;97067.88;;;23.98;44.21
42727;BME280;28372;56.832;60.658;2023-07-13T01:52:23;97071.78;;;23.91;43.79
42727;BME280;28372;56.832;60.658;2023-07-13T01:54:51;97058.97;;;24.08;43.26
42727;BME280;28372;56.832;60.658;2023-07-13T01:57:19;97061.13;;;24.19;43.42
42727;BME280;28372;56.832;60.658;2023-07-13T01:59:47;97057.03;;;24.29;43.08
42727;BME280;28372;56.832;60.658;2023-07-13T02:02:14;97060.88;;;24.38;42.37
42727;BME280;28372;56.832;60.658;2023-07-13T02:04:42;97049.25;;;24.34;42.39
42727;BME280;28372;56.832;60.658;2023-07-13T02:07:10;97040.50;;;24.35;42.67
42727;BME280;28372;56.832;60.658;2023-07-13T02:09:38;97037.59;;;24.44;42.27
42727;BME280;28372;56.832;60.658;2023-07-13T02:12:06;97043.19;;;24.50;42.45
42727;BME280;28372;56.832;60.658;2023-07-13T02:14:35;97042.59;;;24.61;41.93
42727;BME280;28372;56.832;60.658;2023-07-13T02:17:04;97041.44;;;24.68;41.88
42727;BME280;28372;56.832;60.658;2023-07-13T02:19:32;97044.03;;;24.77;42.02
42727;BME280;28372;56.832;60.658;2023-07-13T02:22:00;97036.34;;;24.87;41.56
42727;BME280;28372;56.832;60.658;2023-07-13T02:24:28;97042.97;;;24.95;41.00
42727;BME280;28372;56.832;60.658;2023-07-13T02:26:55;97036.75;;;25.00;40.33
42727;BME280;28372;56.832;60.658;2023-07-13T02:29:23;97053.09;;;25.04;40.14
42727;BME280;28372;56.832;60.658;2023-07-13T02:31:51;97057.19;;;25.08;39.70
42727;BME280;28372;56.832;60.658;2023-07-13T02:34:19;97058.22;;;25.11;39.18
42727;BME280;28372;56.832;60.658;2023-07-13T02:36:46;97056.16;;;25.06;39.31
42727;BME280;28372;56.832;60.658;2023-07-13T02:39:14;97058.50;;;25.13;39.51
42727;BME280;28372;56.832;60.658;2023-07-13T02:41:42;97060.56;;;25.18;39.42
42727;BME280;28372;56.832;60.658;2023-07-13T02:44:14;97066.41;;;25.26;39.57
42727;BME280;28372;56.832;60.658;2023-07-13T02:46:42;97063.38;;;25.24;39.38
42727;BME280;28372;56.832;60.658;2023-07-13T02:49:10;97065.66;;;25.25;39.01
42727;BME280;28372;56.832;60.658;2023-07-13T02:51:37;97058.97;;;25.32;38.95
42727;BME280;28372;56.832;60.658;2023-07-13T02:54:05;97060.78;;;25.41;38.85
42727;BME280;28372;56.832;60.658;2023-07-13T02:56:33;97062.78;;;25.40;38.64
42727;BME280;28372;56.832;60.658;2023-07-13T02:59:01;97055.84;;;25.51;38.79
42727;BME280;28372;56.832;60.658;2023-07-13T03:01:29;97060.41;;;25.54;38.77
42727;BME280;28372;56.832;60.658;2023-07-13T03:03:57;97059.19;;;25.60;38.46
42727;BME280;28372;56.832;60.658;2023-07-13T03:06:25;97059.94;;;25.61;38.53
42727;BME280;28372;56.832;60.658;2023-07-13T03:08:58;97068.66;;;25.80;37.95
42727;BME280;28372;56.832;60.658;2023-07-13T03:11:30;97070.03;;;25.96;37.93
42727;BME280;28372;56.832;60.658;2023-07-13T03:14:18;97074.66;;;26.54;37.41
42727;BME280;28372;56.832;60.658;2023-07-13T03:16:46;97072.88;;;27.33;36.33
42727;BME280;28372;56.832;60.658;2023-07-13T03:19:14;97059.75;;;27.28;34.88
42727;BME280;28372;56.832;60.658;2023-07-13T03:21:46;97080.94;;;27.14;35.22
42727;BME280;28372;56.832;60.658;2023-07-13T03:24:14;97072.84;;;27.05;35.21
42727;BME280;28372;56.832;60.658;2023-07-13T03:26:43;97078.16;;;27.09;34.99
42727;BME280;28372;56.832;60.658;2023-07-13T03:29:11;97081.69;;;27.09;34.73
42727;BME280;28372;56.832;60.658;2023-07-13T03:31:39;97073.38;;;27.26;34.58
42727;BME280;28372;56.832;60.658;2023-07-13T03:34:07;97069.41;;;27.61;34.03
42727;BME280;28372;56.832;60.658;2023-07-13T03:36:36;97080.00;;;27.85;33.66
42727;BME280;28372;56.832;60.658;2023-07-13T03:39:09;97085.84;;;27.99;33.77
42727;BME280;28372;56.832;60.658;2023-07-13T03:41:45;97081.44;;;28.37;32.85
42727;BME280;28372;56.832;60.658;2023-07-13T03:44:15;97088.44;;;29.26;32.32
42727;BME280;28372;56.832;60.658;2023-07-13T03:46:44;97094.06;;;29.56;31.52
42727;BME280;28372;56.832;60.658;2023-07-13T03:49:13;97086.81;;;30.08;31.37
42727;BME280;28372;56.832;60.658;2023-07-13T03:51:41;97079.81;;;30.70;30.52
42727;BME280;28372;56.832;60.658;2023-07-13T03:54:09;97078.03;;;31.11;29.06
42727;BME280;28372;56.832;60.658;2023-07-13T03:56:37;97076.56;;;31.42;28.65
42727;BME280;28372;56.832;60.658;2023-07-13T03:59:06;97074.13;;;31.52;27.33
42727;BME280;28372;56.832;60.658;2023-07-13T04:01:34;97079.78;;;32.11;27.53
42727;BME280;28372;56.832;60.658;2023-07-13T04:04:02;97090.19;;;33.04;26.61
42727;BME280;28372;56.832;60.658;2023-07-13T04:06:31;97079.72;;;33.05;26.52
42727;BME280;28372;56.832;60.658;2023-07-13T04:09:02;97085.91;;;32.90;26.10
42727;BME280;28372;56.832;60.658;2023-07-13T04:11:33;97077.81;;;33.34;26.09
42727;BME280;28372;56.832;60.658;2023-07-13T04:14:04;97085.19;;;33.10;26.78
42727;BME280;28372;56.832;60.658;2023-07-13T04:16:33;97083.28;;;33.40;26.44
42727;BME280;28372;56.832;60.658;2023-07-13T04:19:01;97084.31;;;33.16;26.48
42727;BME280;28372;56.832;60.658;2023-07-13T04:21:30;97089.22;;;33.02;26.17
42727;BME280;28372;56.832;60.658;2023-07-13T04:23:58;97079.22;;;32.93;26.02
42727;BME280;28372;56.832;60.658;2023-07-13T04:26:26;97089.25;;;32.88;25.76
42727;BME280;28372;56.832;60.658;2023-07-13T04:28:54;97084.09;;;32.92;25.69
42727;BME280;28372;56.832;60.658;2023-07-13T04:31:22;97082.66;;;33.89;24.92
42727;BME280;28372;56.832;60.658;2023-07-13T04:33:50;97075.41;;;34.52;24.53
42727;BME280;28372;56.832;60.658;2023-07-13T04:36:20;97073.38;;;35.04;24.22
42727;BME280;28372;56.832;60.658;2023-07-13T04:38:47;97071.91;;;35.03;23.73
42727;BME280;28372;56.832;60.658;2023-07-13T04:41:16;97069.59;;;34.49;24.19
42727;BME280;28372;56.832;60.658;2023-07-13T04:43:44;97080.72;;;35.15;23.42
42727;BME280;28372;56.832;60.658;2023-07-13T04:46:17;97083.66;;;35.92;22.38
42727;BME280;28372;56.832;60.658;2023-07-13T04:48:46;97088.56;;;36.07;23.16
42727;BME280;28372;56.832;60.658;2023-07-13T04:51:14;97073.69;;;36.30;22.31
42727;BME280;28372;56.832;60.658;2023-07-13T04:53:41;97076.91;;;36.03;22.47
42727;BME280;28372;56.832;60.658;2023-07-13T04:56:09;97076.56;;;35.91;22.42
42727;BME280;28372;56.832;60.658;2023-07-13T04:58:37;97069.94;;;35.50;22.03
42727;BME280;28372;56.832;60.658;2023-07-13T05:01:06;97083.44;;;35.51;22.73
42727;BME280;28372;56.832;60.658;2023-07-13T05:03:34;97083.97;;;35.34;22.32
42727;BME280;28372;56.832;60.658;2023-07-13T05:06:07;97071.25;;;35.49;22.63
42727;BME280;28372;56.832;60.658;2023-07-13T05:08:37;97077.63;;;36.42;21.36
42727;BME280;28372;56.832;60.658;2023-07-13T05:11:05;97079.25;;;36.68;21.48
42727;BME280;28372;56.832;60.658;2023-07-13T05:13:34;97068.78;;;37.02;21.57
42727;BME280;28372;56.832;60.658;2023-07-13T05:16:04;97089.03;;;36.60;21.16
42727;BME280;28372;56.832;60.658;2023-07-13T05:18:34;97091.72;;;36.19;21.73
42727;BME280;28372;56.832;60.658;2023-07-13T05:21:05;97083.69;;;36.00;22.02
42727;BME280;28372;56.832;60.658;2023-07-13T05:23:34;97078.97;;;36.10;21.33
42727;BME280;28372;56.832;60.658;2023-07-13T05:26:03;97091.75;;;35.96;21.47
42727;BME280;28372;56.832;60.658;2023-07-13T05:28:36;97082.91;;;35.61;21.70
42727;BME280;28372;56.832;60.658;2023-07-13T05:31:06;97093.56;;;35.47;21.87
42727;BME280;28372;56.832;60.658;2023-07-13T05:33:35;97096.75;;;35.36;22.19
42727;BME280;28372;56.832;60.658;2023-07-13T05:36:03;97091.81;;;35.28;22.51
42727;BME280;28372;56.832;60.658;2023-07-13T05:38:30;97088.44;;;35.30;22.17
42727;BME280;28372;56.832;60.658;2023-07-13T05:40:58;97084.47;;;35.10;22.01
42727;BME280;28372;56.832;60.658;2023-07-13T05:43:29;97076.69;;;35.70;22.25
42727;BME280;28372;56.832;60.658;2023-07-13T05:45:57;97066.56;;;36.21;21.30
42727;BME280;28372;56.832;60.658;2023-07-13T05:48:25;97068.66;;;36.13;21.14
42727;BME280;28372;56.832;60.658;2023-07-13T05:50:52;97073.84;;;36.55;21.50
42727;BME280;28372;56.832;60.658;2023-07-13T05:53:20;97064.50;;;36.29;21.04
42727;BME280;28372;56.832;60.658;2023-07-13T05:55:48;97087.06;;;35.98;21.54
42727;BME280;28372;56.832;60.658;2023-07-13T05:58:17;97083.47;;;35.75;21.70
42727;BME280;28372;56.832;60.658;2023-07-13T06:00:46;97087.78;;;35.60;21.63
42727;BME280;28372;56.832;60.658;2023-07-13T06:03:14;97072.75;;;35.50;21.83
42727;BME280;28372;56.832;60.658;2023-07-13T06:05:42;97079.59;;;35.10;22.41
42727;BME280;28372;56.832;60.658;2023-07-13T06:08:10;97065.88;;;34.99;22.24
42727;BME280;28372;56.832;60.658;2023-07-13T06:10:38;97065.84;;;35.51;21.71
42727;BME280;28372;56.832;60.658;2023-07-13T06:13:06;97066.41;;;36.11;21.92
42727;BME280;28372;56.832;60.658;2023-07-13T06:15:33;97061.13;;;36.23;21.40
42727;BME280;28372;56.832;60.658;2023-07-13T06:18:01;97065.66;;;35.95;22.17
42727;BME280;28372;56.832;60.658;2023-07-13T06:20:29;97072.00;;;36.19;22.60
42727;BME280;28372;56.832;60.658;2023-07-13T06:22:57;97075.16;;;36.54;21.84
42727;BME280;28372;56.832;60.658;2023-07-13T06:25:26;97074.25;;;36.28;21.71
42727;BME280;28372;56.832;60.658;2023-07-13T06:27:54;97080.09;;;36.30;21.71
42727;BME280;28372;56.832;60.658;2023-07-13T06:30:22;97087.22;;;36.24;21.72
42727;BME280;28372;56.832;60.658;2023-07-13T06:32:49;97085.72;;;35.99;21.61
42727;BME280;28372;56.832;60.658;2023-07-13T06:35:17;97089.84;;;35.75;21.66
42727;BME280;28372;56.832;60.658;2023-07-13T06:37:46;97089.81;;;35.60;22.14
42727;BME280;28372;56.832;60.658;2023-07-13T06:40:14;97093.00;;;35.41;22.45
42727;BME280;28372;56.832;60.658;2023-07-13T06:42:42;97095.22;;;35.34;22.59
42727;BME280;28372;56.832;60.658;2023-07-13T06:45:10;97101.63;;;35.35;22.48
42727;BME280;28372;56.832;60.658;2023-07-13T06:47:37;97106.00;;;35.15;22.79
42727;BME280;28372;56.832;60.658;2023-07-13T06:50:05;97104.28;;;35.04;22.81
42727;BME280;28372;56.832;60.658;2023-07-13T06:52:33;97103.88;;;34.85;22.85
42727;BME280;28372;56.832;60.658;2023-07-13T06:55:01;97104.44;;;34.91;22.57
42727;BME280;28372;56.832;60.658;2023-07-13T06:57:30;97106.59;;;34.77;22.72
42727;BME280;28372;56.832;60.658;2023-07-13T06:59:58;97116.63;;;34.93;22.74
42727;BME280;28372;56.832;60.658;2023-07-13T07:02:26;97110.91;;;34.78;22.78
42727;BME280;28372;56.832;60.658;2023-07-13T07:04:54;97111.03;;;34.64;22.76
42727;BME280;28372;56.832;60.658;2023-07-13T07:07:24;97122.91;;;34.78;23.03
42727;BME280;28372;56.832;60.658;2023-07-13T07:09:52;97110.22;;;34.85;23.28
42727;BME280;28372;56.832;60.658;2023-07-13T07:12:20;97120.72;;;34.85;22.83
42727;BME280;28372;56.832;60.658;2023-07-13T07:14:48;97108.63;;;34.69;22.69
42727;BME280;28372;56.832;60.658;2023-07-13T07:17:15;97114.88;;;34.54;22.76
42727;BME280;28372;56.832;60.658;2023-07-13T07:19:43;97107.97;;;34.55;23.26
42727;BME280;28372;56.832;60.658;2023-07-13T07:22:10;97109.03;;;35.25;21.92
42727;BME280;28372;56.832;60.658;2023-07-13T07:24:38;97111.56;;;34.92;22.63
42727;BME280;28372;56.832;60.658;2023-07-13T07:27:06;97106.56;;;34.69;22.41
42727;BME280;28372;56.832;60.658;2023-07-13T07:29:36;97100.25;;;35.28;22.69
42727;BME280;28372;56.832;60.658;2023-07-13T07:32:12;97090.78;;;35.78;22.00
42727;BME280;28372;56.832;60.658;2023-07-13T07:35:00;97090.44;;;35.81;21.85
42727;BME280;28372;56.832;60.658;2023-07-13T07:37:29;97094.50;;;35.57;22.04
42727;BME280;28372;56.832;60.658;2023-07-13T07:39:59;97098.34;;;35.15;22.06
42727;BME280;28372;56.832;60.658;2023-07-13T07:42:30;97102.50;;;35.30;22.33
42727;BME280;28372;56.832;60.658;2023-07-13T07:44:58;97079.88;;;35.59;22.26
42727;BME280;28372;56.832;60.658;2023-07-13T07:47:26;97093.22;;;35.58;21.87
42727;BME280;28372;56.832;60.658;2023-07-13T07:49:53;97097.34;;;35.65;21.46
42727;BME280;28372;56.832;60.658;2023-07-13T07:52:21;97102.00;;;35.70;21.18
42727;BME280;28372;56.832;60.658;2023-07-13T07:54:49;97106.53;;;35.65;21.18
42727;BME280;28372;56.832;60.658;2023-07-13T07:57:19;97096.38;;;35.55;21.33
42727;BME280;28372;56.832;60.658;2023-07-13T07:59:50;97100.59;;;35.17;21.64
42727;BME280;28372;56.832;60.658;2023-07-13T08:02:20;97108.66;;;35.13;21.56
42727;BME280;28372;56.832;60.658;2023-07-13T08:04:51;97112.25;;;35.29;21.72
42727;BME280;28372;56.832;60.658;2023-07-13T08:07:22;97114.50;;;35.23;21.84
42727;BME280;28372;56.832;60.658;2023-07-13T08:09:52;97129.84;;;35.22;22.18
42727;BME280;28372;56.832;60.658;2023-07-13T08:12:20;97117.38;;;34.94;22.14
42727;BME280;28372;56.832;60.658;2023-07-13T08:14:51;97123.22;;;35.04;21.54
42727;BME280;28372;56.832;60.658;2023-07-13T08:17:25;97111.91;;;34.80;21.48
42727;BME280;28372;56.832;60.658;2023-07-13T08:19:53;97119.56;;;34.51;22.06
42727;BME280;28372;56.832;60.658;2023-07-13T08:22:20;97117.06;;;34.40;22.19
42727;BME280;28372;56.832;60.658;2023-07-13T08:24:48;97122.47;;;34.38;22.15
42727;BME280;28372;56.832;60.658;2023-07-13T08:27:24;97127.03;;;34.48;22.22
42727;BME280;28372;56.832;60.658;2023-07-13T08:29:53;97116.78;;;34.51;21.65
42727;BME280;28372;56.832;60.658;2023-07-13T08:32:22;97119.53;;;34.43;21.74
42727;BME280;28372;56.832;60.658;2023-07-13T08:34:50;97123.53;;;34.06;21.99
42727;BME280;28372;56.832;60.658;2023-07-13T08:37:19;97115.22;;;33.92;22.51
42727;BME280;28372;56.832;60.658;2023-07-13T08:39:47;97104.47;;;33.83;22.78
42727;BME280;28372;56.832;60.658;2023-07-13T08:42:22;97122.44;;;33.88;22.55
42727;BME280;28372;56.832;60.658;2023-07-13T08:45:12;97114.69;;;34.02;22.83
42727;BME280;28372;56.832;60.658;2023-07-13T08:47:47;97110.13;;;33.70;22.89
42727;BME280;28372;56.832;60.658;2023-07-13T08:50:18;97119.56;;;33.59;23.07
42727;BME280;28372;56.832;60.658;2023-07-13T08:52:47;97111.44;;;33.34;23.33
42727;BME280;28372;56.832;60.658;2023-07-13T08:57:50;97117.81;;;33.35;23.61
42727;BME280;28372;56.832;60.658;2023-07-13T09:00:20;97117.88;;;33.08;23.45
42727;BME280;28372;56.832;60.658;2023-07-13T09:02:57;97115.75;;;33.35;23.43
42727;BME280;28372;56.832;60.658;2023-07-13T09:05:38;97122.75;;;33.42;23.65
42727;BME280;28372;56.832;60.658;2023-07-13T09:10:46;97121.03;;;33.39;23.76
42727;BME280;28372;56.832;60.658;2023-07-13T09:13:38;97112.16;;;33.48;23.69
42727;BME280;28372;56.832;60.658;2023-07-13T09:16:09;97119.78;;;33.26;23.70
42727;BME280;28372;56.832;60.658;2023-07-13T09:18:43;97124.97;;;33.09;23.39
42727;BME280;28372;56.832;60.658;2023-07-13T09:21:21;97120.44;;;33.06;23.54
42727;BME280;28372;56.832;60.658;2023-07-13T09:23:53;97123.78;;;33.04;23.64
42727;BME280;28372;56.832;60.658;2023-07-13T09:26:23;97116.13;;;33.53;23.59
42727;BME280;28372;56.832;60.658;2023-07-13T09:28:55;97113.63;;;33.28;23.56
42727;BME280;28372;56.832;60.658;2023-07-13T09:31:33;97115.34;;;33.31;23.46
42727;BME280;28372;56.832;60.658;2023-07-13T09:34:02;97105.09;;;33.20;23.19
42727;BME280;28372;56.832;60.658;2023-07-13T09:36:32;97112.16;;;33.13;23.33
42727;BME280;28372;56.832;60.658;2023-07-13T09:44:44;97108.56;;;33.26;23.18
42727;BME280;28372;56.832;60.658;2023-07-13T09:47:24;97105.50;;;33.38;23.34
42727;BME280;28372;56.832;60.658;2023-07-13T09:50:06;97100.78;;;33.33;23.05
42727;BME280;28372;56.832;60.658;2023-07-13T09:52:48;97104.09;;;33.44;23.15
42727;BME280;28372;56.832;60.658;2023-07-13T09:55:39;97099.72;;;33.22;23.63
42727;BME280;28372;56.832;60.658;2023-07-13T09:58:15;97107.41;;;33.08;23.73
42727;BME280;28372;56.832;60.658;2023-07-13T10:01:03;97104.06;;;33.10;23.74
42727;BME280;28372;56.832;60.658;2023-07-13T10:03:36;97102.84;;;32.84;23.72
42727;BME280;28372;56.832;60.658;2023-07-13T10:08:41;97093.34;;;32.74;24.04
42727;BME280;28372;56.832;60.658;2023-07-13T10:11:27;97101.63;;;32.79;23.93
42727;BME280;28372;56.832;60.658;2023-07-13T10:14:18;97086.91;;;32.79;23.94
42727;BME280;28372;56.832;60.658;2023-07-13T10:16:50;97086.91;;;32.39;24.41
42727;BME280;28372;56.832;60.658;2023-07-13T10:19:24;97093.78;;;32.78;23.62
42727;BME280;28372;56.832;60.658;2023-07-13T10:21:58;97080.44;;;32.17;24.37
42727;BME280;28372;56.832;60.658;2023-07-13T10:24:33;97079.09;;;32.05;24.46
42727;BME280;28372;56.832;60.658;2023-07-13T10:27:15;97080.28;;;32.09;24.40
42727;BME280;28372;56.832;60.658;2023-07-13T10:30:11;97076.78;;;32.36;24.07
42727;BME280;28372;56.832;60.658;2023-07-13T10:32:43;97077.69;;;31.98;24.44
42727;BME280;28372;56.832;60.658;2023-07-13T10:35:13;97081.00;;;31.83;24.53
42727;BME280;28372;56.832;60.658;2023-07-13T10:37:47;97067.63;;;31.63;24.49
42727;BME280;28372;56.832;60.658;2023-07-13T10:40:22;97072.28;;;31.87;24.58
42727;BME280;28372;56.832;60.658;2023-07-13T10:42:54;97068.34;;;31.96;24.67
42727;BME280;28372;56.832;60.658;2023-07-13T10:45:24;97067.63;;;31.63;24.08
42727;BME280;28372;56.832;60.658;2023-07-13T10:47:54;97069.28;;;31.52;23.97
42727;BME280;28372;56.832;60.658;2023-07-13T10:50:25;97067.13;;;31.45;24.62
42727;BME280;28372;56.832;60.658;2023-07-13T10:52:55;97068.06;;;31.48;24.68
42727;BME280;28372;56.832;60.658;2023-07-13T10:58:23;97070.72;;;31.59;24.31
42727;BME280;28372;56.832;60.658;2023-07-13T11:01:17;97068.44;;;31.57;24.42
42727;BME280;28372;56.832;60.658;2023-07-13T11:03:49;97059.50;;;31.26;24.29
42727;BME280;28372;56.832;60.658;2023-07-13T11:08:52;97071.59;;;30.97;24.35
42727;BME280;28372;56.832;60.658;2023-07-13T11:18:53;97070.41;;;30.23;24.39
42727;BME280;28372;56.832;60.658;2023-07-13T11:22:03;97075.28;;;30.67;24.29
42727;BME280;28372;56.832;60.658;2023-07-13T11:24:51;97053.13;;;30.93;25.08
42727;BME280;28372;56.832;60.658;2023-07-13T11:27:38;97058.69;;;31.13;24.83
42727;BME280;28372;56.832;60.658;2023-07-13T11:36:13;97050.41;;;30.88;24.94
42727;BME280;28372;56.832;60.658;2023-07-13T11:38:43;97047.91;;;30.84;24.49
42727;BME280;28372;56.832;60.658;2023-07-13T11:41:23;97041.19;;;30.74;24.59
42727;BME280;28372;56.832;60.658;2023-07-13T11:44:02;97036.44;;;30.69;24.31
42727;BME280;28372;56.832;60.658;2023-07-13T11:46:33;97030.78;;;30.31;24.64
42727;BME280;28372;56.832;60.658;2023-07-13T11:49:01;97036.06;;;30.34;24.75
42727;BME280;28372;56.832;60.658;2023-07-13T11:51:31;97030.59;;;30.48;24.87
42727;BME280;28372;56.832;60.658;2023-07-13T11:54:06;97036.88;;;30.54;24.55
42727;BME280;28372;56.832;60.658;2023-07-13T11:56:39;97034.75;;;30.16;24.07
42727;BME280;28372;56.832;60.658;2023-07-13T11:59:08;97027.91;;;29.93;24.55
42727;BME280;28372;56.832;60.658;2023-07-13T12:01:44;97034.28;;;30.12;24.85
42727;BME280;28372;56.832;60.658;2023-07-13T12:06:55;97014.47;;;30.16;24.94
42727;BME280;28372;56.832;60.658;2023-07-13T12:09:26;97016.22;;;29.94;25.23
42727;BME280;28372;56.832;60.658;2023-07-13T12:11:57;97021.69;;;29.75;25.26
42727;BME280;28372;56.832;60.658;2023-07-13T12:14:26;97019.88;;;29.53;25.07
42727;BME280;28372;56.832;60.658;2023-07-13T12:16:54;97023.59;;;29.61;25.46
42727;BME280;28372;56.832;60.658;2023-07-13T12:19:26;97030.19;;;29.58;25.41
42727;BME280;28372;56.832;60.658;2023-07-13T12:21:58;97020.88;;;29.19;25.93
42727;BME280;28372;56.832;60.658;2023-07-13T12:24:27;97007.00;;;28.72;26.00
42727;BME280;28372;56.832;60.658;2023-07-13T12:27:02;97012.72;;;28.85;26.68
42727;BME280;28372;56.832;60.658;2023-07-13T12:29:34;97016.31;;;28.80;26.37
42727;BME280;28372;56.832;60.658;2023-07-13T12:32:01;97001.44;;;28.72;26.21
42727;BME280;28372;56.832;60.658;2023-07-13T12:34:29;97000.69;;;28.60;26.79
42727;BME280;28372;56.832;60.658;2023-07-13T12:37:02;97005.50;;;28.65;27.16
42727;BME280;28372;56.832;60.658;2023-07-13T12:39:38;96997.25;;;28.96;26.58
42727;BME280;28372;56.832;60.658;2023-07-13T12:42:18;96993.94;;;28.97;26.82
42727;BME280;28372;56.832;60.658;2023-07-13T12:45:24;97003.88;;;29.23;26.63
42727;BME280;28372;56.832;60.658;2023-07-13T12:47:56;96993.53;;;28.82;27.03
42727;BME280;28372;56.832;60.658;2023-07-13T12:50:39;96997.69;;;29.05;26.94
42727;BME280;28372;56.832;60.658;2023-07-13T12:53:16;96985.84;;;28.94;26.81
42727;BME280;28372;56.832;60.658;2023-07-13T12:55:52;96992.78;;;28.81;27.12
42727;BME280;28372;56.832;60.658;2023-07-13T12:58:41;96988.06;;;28.65;27.54
42727;BME280;28372;56.832;60.658;2023-07-13T13:01:13;96987.78;;;28.68;27.00
42727;BME280;28372;56.832;60.658;2023-07-13T13:03:46;96993.13;;;28.61;27.30
42727;BME280;28372;56.832;60.658;2023-07-13T13:08:43;96982.09;;;28.38;26.91
42727;BME280;28372;56.832;60.658;2023-07-13T13:11:11;96986.22;;;28.20;27.67
42727;BME280;28372;56.832;60.658;2023-07-13T13:13:38;96972.28;;;28.26;27.32
42727;BME280;28372;56.832;60.658;2023-07-13T13:18:47;96968.97;;;28.33;27.48
42727;BME280;28372;56.832;60.658;2023-07-13T13:21:15;96966.16;;;28.38;27.15
42727;BME280;28372;56.832;60.658;2023-07-13T13:23:45;96955.81;;;28.33;27.34
42727;BME280;28372;56.832;60.658;2023-07-13T13:26:15;96958.88;;;28.30;27.73
42727;BME280;28372;56.832;60.658;2023-07-13T13:28:46;96946.28;;;28.17;27.68
42727;BME280;28372;56.832;60.658;2023-07-13T13:31:15;96947.09;;;28.07;27.58
42727;BME280;28372;56.832;60.658;2023-07-13T13:33:45;96947.34;;;27.97;28.07
42727;BME280;28372;56.832;60.658;2023-07-13T13:36:19;96936.00;;;27.84;27.77
42727;BME280;28372;56.832;60.658;2023-07-13T13:38:48;96936.00;;;27.84;28.28
42727;BME280;28372;56.832;60.658;2023-07-13T13:41:16;96930.50;;;27.73;28.23
42727;BME280;28372;56.832;60.658;2023-07-13T13:43:44;96931.47;;;27.86;27.79
42727;BME280;28372;56.832;60.658;2023-07-13T13:46:16;96934.44;;;28.11;27.78
42727;BME280;28372;56.832;60.658;2023-07-13T13:48:45;96923.06;;;28.09;27.52
42727;BME280;28372;56.832;60.658;2023-07-13T13:51:20;96931.06;;;28.30;27.62